createdAt,value
2022-12-03T00:02:36.677Z,12.53
2022-12-03T00:05:41.730Z,13.03
2022-12-03T00:08:46.489Z,12.67
2022-12-03T00:11:48.118Z,13.63
2022-12-03T00:14:49.951Z,14.57
2022-12-03T00:17:51.519Z,12.50
2022-12-03T00:20:53.089Z,13.73
2022-12-03T00:23:54.641Z,14.27
2022-12-03T00:26:56.669Z,15.10
2022-12-03T00:30:07.846Z,15.27
2022-12-03T00:33:11.270Z,15.73
2022-12-03T00:36:12.873Z,14.40
2022-12-03T00:39:14.565Z,15.97
2022-12-03T00:42:16.189Z,15.17
2022-12-03T00:45:17.965Z,15.63
2022-12-03T00:48:19.591Z,15.07
2022-12-03T00:51:21.253Z,14.33
2022-12-03T00:54:28.379Z,14.43
2022-12-03T00:57:33.146Z,15.60
2022-12-03T01:00:34.816Z,14.17
2022-12-03T01:03:36.451Z,14.13
2022-12-03T01:06:38.133Z,14.97
2022-12-03T01:09:39.775Z,13.50
2022-12-03T01:12:41.435Z,13.43
2022-12-03T01:15:43.083Z,12.63
2022-12-03T01:18:46.260Z,15.27
2022-12-03T01:21:50.243Z,13.60
2022-12-03T01:24:52.027Z,13.23
2022-12-03T01:27:53.852Z,14.60
2022-12-03T01:31:14.043Z,11.33
2022-12-03T01:34:15.725Z,12.20
2022-12-03T01:37:17.814Z,12.37
2022-12-03T01:40:20.125Z,11.40
2022-12-03T01:43:21.730Z,11.90
2022-12-03T01:46:24.827Z,12.07
2022-12-03T01:49:29.094Z,11.47
2022-12-03T01:52:32.577Z,11.17
2022-12-03T01:55:34.296Z,12.10
2022-12-03T01:58:35.963Z,11.33
2022-12-03T02:01:37.581Z,11.93
2022-12-03T02:04:39.418Z,11.43
2022-12-03T02:07:41.071Z,11.23
2022-12-03T02:10:42.808Z,12.00
2022-12-03T02:13:44.544Z,11.73
2022-12-03T02:16:46.747Z,8.57
2022-12-03T02:19:48.427Z,8.90
2022-12-03T02:23:02.691Z,9.80
2022-12-03T02:26:04.366Z,9.70
2022-12-03T02:29:06.149Z,6.53
2022-12-03T02:32:07.823Z,7.17
2022-12-03T02:35:17.523Z,7.37
2022-12-03T02:38:23.632Z,7.80
2022-12-03T02:41:43.708Z,6.77
2022-12-03T02:44:45.411Z,6.77
2022-12-03T02:47:49.111Z,7.93
2022-12-03T02:50:53.305Z,7.43
2022-12-03T02:53:57.088Z,7.90
2022-12-03T02:56:58.748Z,7.57
2022-12-03T03:00:00.412Z,9.00
2022-12-03T03:03:03.737Z,7.40
2022-12-03T03:06:06.381Z,7.37
2022-12-03T03:09:08.026Z,6.57
2022-12-03T03:12:09.926Z,7.03
2022-12-03T03:15:11.812Z,7.03
2022-12-03T03:18:13.942Z,6.40
2022-12-03T03:21:15.516Z,6.80
2022-12-03T03:24:17.180Z,6.90
2022-12-03T03:27:18.784Z,13.17
2022-12-03T03:30:20.392Z,9.20
2022-12-03T03:33:22.260Z,13.57
2022-12-03T03:36:24.705Z,9.90
2022-12-03T03:39:26.515Z,10.90
2022-12-03T03:42:28.313Z,5.87
2022-12-03T03:45:29.983Z,5.33
2022-12-03T03:48:31.892Z,4.90
2022-12-03T03:51:35.059Z,5.07
2022-12-03T03:54:36.771Z,4.53
2022-12-03T03:57:38.881Z,4.50
2022-12-03T04:00:42.113Z,4.43
2022-12-03T04:03:43.813Z,4.13
2022-12-03T04:06:45.776Z,4.33
2022-12-03T04:09:47.334Z,4.00
2022-12-03T04:12:57.966Z,4.87
2022-12-03T04:15:59.671Z,4.20
2022-12-03T04:19:01.418Z,4.30
2022-12-03T04:22:21.608Z,5.40
2022-12-03T04:25:41.542Z,5.00
2022-12-03T04:28:49.361Z,5.30
2022-12-03T04:32:09.659Z,4.60
2022-12-03T04:35:29.874Z,6.20
2022-12-03T04:38:31.487Z,4.90
2022-12-03T04:41:33.091Z,5.27
2022-12-03T04:44:37.816Z,5.53
2022-12-03T04:47:40.137Z,7.00
2022-12-03T04:50:41.780Z,7.50
2022-12-03T04:53:46.206Z,5.80
2022-12-03T04:56:48.059Z,4.00
2022-12-03T04:59:49.690Z,4.23
2022-12-03T05:02:51.388Z,4.77
2022-12-03T05:05:52.997Z,4.73
2022-12-03T05:08:54.610Z,4.50
2022-12-03T05:11:56.309Z,6.67
2022-12-03T05:14:57.906Z,6.60
2022-12-03T05:17:59.468Z,6.07
2022-12-03T05:21:01.143Z,4.13
2022-12-03T05:24:02.934Z,4.73
2022-12-03T05:27:04.580Z,5.00
2022-12-03T05:30:06.567Z,6.47
2022-12-03T05:33:08.169Z,6.10
2022-12-03T05:36:10.275Z,6.80
2022-12-03T05:39:11.852Z,6.57
2022-12-03T05:42:32.008Z,6.60
2022-12-03T05:45:34.924Z,6.57
2022-12-03T05:48:36.478Z,6.63
2022-12-03T05:51:38.004Z,7.23
2022-12-03T05:54:39.592Z,7.00
2022-12-03T05:57:41.218Z,7.03
2022-12-03T06:00:43.206Z,6.97
2022-12-03T06:03:45.134Z,7.00
2022-12-03T06:06:46.940Z,4.50
2022-12-03T06:09:48.611Z,4.17
2022-12-03T06:12:50.870Z,5.60
2022-12-03T06:15:52.557Z,6.37
2022-12-03T06:18:54.202Z,5.00
2022-12-03T06:21:55.836Z,7.63
2022-12-03T06:25:00.872Z,7.67
2022-12-03T06:28:07.405Z,8.20
2022-12-03T06:31:09.024Z,10.70
2022-12-03T06:34:10.657Z,8.00
2022-12-03T06:37:12.271Z,7.40
2022-12-03T06:40:14.020Z,7.70
2022-12-03T06:43:15.640Z,9.10
2022-12-03T06:46:17.379Z,8.27
2022-12-03T06:49:34.141Z,6.00
2022-12-03T06:52:35.806Z,4.40
2022-12-03T06:55:37.380Z,5.37
2022-12-03T06:58:39.000Z,5.77
2022-12-03T07:01:40.652Z,6.30
2022-12-03T07:04:46.273Z,6.07
2022-12-03T07:07:52.373Z,4.10
2022-12-03T07:10:54.196Z,6.00
2022-12-03T07:14:00.049Z,5.37
2022-12-03T07:17:04.788Z,5.10
2022-12-03T07:20:06.703Z,5.50
2022-12-03T07:23:08.299Z,4.50
2022-12-03T07:26:09.918Z,5.07
2022-12-03T07:29:11.499Z,4.27
2022-12-03T07:32:13.132Z,4.90
2022-12-03T07:35:14.740Z,5.10
2022-12-03T07:38:16.331Z,6.10
2022-12-03T07:41:18.004Z,5.23
2022-12-03T07:44:19.651Z,5.53
2022-12-03T07:47:21.322Z,6.63
2022-12-03T07:50:22.892Z,6.70
2022-12-03T07:53:24.713Z,6.70
2022-12-03T07:56:26.411Z,9.27
2022-12-03T07:59:28.437Z,7.40
2022-12-03T08:02:30.120Z,9.37
2022-12-03T08:05:31.759Z,8.03
2022-12-03T08:08:33.324Z,7.67
2022-12-03T08:11:34.962Z,8.73
2022-12-03T08:14:36.515Z,9.77
2022-12-03T08:17:40.379Z,13.50
2022-12-03T08:20:43.780Z,13.70
2022-12-03T08:23:45.500Z,12.93
2022-12-03T08:26:48.705Z,9.93
2022-12-03T08:29:50.387Z,11.10
2022-12-03T08:32:52.169Z,9.80
2022-12-03T08:35:54.121Z,9.77
2022-12-03T08:38:57.406Z,10.77
2022-12-03T08:42:23.495Z,11.53
2022-12-03T08:45:28.350Z,10.30
2022-12-03T08:48:30.149Z,11.00
2022-12-03T08:51:34.619Z,10.97
2022-12-03T08:54:36.292Z,10.03
2022-12-03T08:57:37.899Z,11.33
2022-12-03T09:00:39.477Z,12.03
2022-12-03T09:03:52.005Z,11.20
2022-12-03T09:06:59.148Z,9.73
2022-12-03T09:10:00.796Z,9.90
2022-12-03T09:13:12.850Z,5.70
2022-12-03T09:16:14.582Z,5.93
2022-12-03T09:19:16.313Z,6.40
2022-12-03T09:22:18.770Z,6.97
2022-12-03T09:25:20.374Z,7.30
2022-12-03T09:28:22.200Z,6.20
2022-12-03T09:31:23.930Z,8.63
2022-12-03T09:34:25.688Z,5.20
2022-12-03T09:37:27.622Z,7.03
2022-12-03T09:40:29.340Z,5.60
2022-12-03T09:44:02.605Z,6.10
2022-12-03T09:46:54.492Z,4.90
2022-12-03T09:49:56.555Z,6.30
2022-12-03T09:53:00.121Z,6.03
2022-12-03T09:56:01.876Z,6.50
2022-12-03T09:59:06.977Z,6.60
2022-12-03T10:02:18.204Z,8.07
2022-12-03T10:05:20.917Z,6.80
2022-12-03T10:08:24.506Z,6.90
2022-12-03T10:11:29.217Z,6.87
2022-12-03T10:14:31.250Z,6.50
2022-12-03T10:17:33.078Z,6.27
2022-12-03T10:20:34.776Z,6.57
2022-12-03T10:23:36.401Z,6.40
2022-12-03T10:26:40.712Z,7.20
2022-12-03T10:29:42.719Z,8.80
2022-12-03T10:32:49.057Z,6.93
2022-12-03T10:36:02.464Z,15.03
2022-12-03T10:39:09.280Z,9.77
2022-12-03T10:42:15.500Z,17.00
2022-12-03T10:45:22.656Z,14.40
2022-12-03T10:48:26.379Z,13.67
2022-12-03T10:51:27.978Z,13.00
2022-12-03T10:54:33.954Z,12.93
2022-12-03T10:57:35.501Z,17.50
2022-12-03T11:00:37.118Z,18.77
2022-12-03T11:03:38.943Z,15.17
2022-12-03T11:06:40.661Z,19.73
2022-12-03T11:09:49.617Z,14.83
2022-12-03T11:13:09.985Z,18.33
2022-12-03T11:16:11.745Z,17.30
2022-12-03T11:19:14.002Z,19.00
2022-12-03T11:22:26.804Z,14.83
2022-12-03T11:25:28.437Z,13.50
2022-12-03T11:28:34.381Z,13.07
2022-12-03T11:31:36.402Z,11.73
2022-12-03T11:34:38.164Z,11.17
2022-12-03T11:37:39.728Z,11.33
2022-12-03T11:41:01.263Z,14.63
2022-12-03T11:44:04.765Z,11.70
2022-12-03T11:47:12.586Z,12.97
2022-12-03T11:50:23.369Z,13.20
2022-12-03T11:53:26.107Z,12.47
2022-12-03T11:56:30.682Z,13.40
2022-12-03T11:59:32.315Z,13.27
2022-12-03T12:02:34.285Z,15.50
2022-12-03T12:05:35.991Z,16.07
2022-12-03T12:08:38.882Z,24.13
2022-12-03T12:11:43.944Z,19.37
2022-12-03T12:14:45.496Z,14.23
2022-12-03T12:17:47.065Z,22.37
2022-12-03T12:20:48.654Z,19.73
2022-12-03T12:23:50.288Z,24.97
2022-12-03T12:26:52.284Z,20.37
2022-12-03T12:29:55.322Z,21.07
2022-12-03T12:33:12.647Z,20.27
2022-12-03T12:36:14.254Z,19.57
2022-12-03T12:39:16.087Z,21.73
2022-12-03T12:42:30.702Z,21.43
2022-12-03T12:45:36.772Z,15.47
2022-12-03T12:48:39.097Z,21.83
2022-12-03T12:51:44.694Z,17.93
2022-12-03T12:54:46.402Z,15.03
2022-12-03T12:57:50.722Z,17.50
2022-12-03T13:00:54.266Z,17.07
2022-12-03T13:03:56.861Z,21.27
2022-12-03T13:06:59.570Z,20.00
2022-12-03T13:10:07.624Z,23.43
2022-12-03T13:13:23.374Z,24.17
2022-12-03T13:16:25.010Z,21.23
2022-12-03T13:19:31.054Z,18.27
2022-12-03T13:22:32.777Z,20.83
2022-12-03T13:28:59.342Z,22.77
2022-12-03T13:32:11.121Z,23.70
2022-12-03T13:35:17.392Z,25.53
2022-12-03T13:38:19.463Z,36.17
2022-12-03T13:41:39.972Z,75.20
2022-12-03T13:44:44.444Z,42.53
2022-12-03T13:47:46.351Z,30.50
2022-12-03T13:50:47.935Z,28.20
2022-12-03T13:53:49.772Z,26.57
2022-12-03T13:56:51.535Z,25.70
2022-12-03T13:59:53.476Z,38.60
2022-12-03T14:02:55.335Z,51.93
2022-12-03T14:05:56.939Z,56.60
2022-12-03T14:08:58.656Z,47.83
2022-12-03T14:12:19.210Z,54.67
2022-12-03T14:15:21.661Z,34.20
2022-12-03T14:18:23.300Z,44.53
2022-12-03T14:21:24.856Z,33.70
2022-12-03T14:24:26.429Z,30.23
2022-12-03T14:27:28.500Z,29.33
2022-12-03T14:30:30.104Z,27.93
2022-12-03T14:33:31.653Z,42.53
2022-12-03T14:36:33.180Z,31.30
2022-12-03T14:39:34.850Z,23.63
2022-12-03T14:42:36.604Z,30.63
2022-12-03T14:45:38.648Z,30.07
2022-12-03T14:48:40.273Z,30.33
2022-12-03T14:51:41.838Z,31.47
2022-12-03T14:54:43.966Z,38.37
2022-12-03T14:57:45.560Z,27.63
2022-12-03T15:00:47.412Z,32.87
2022-12-03T15:03:49.129Z,46.57
2022-12-03T15:06:50.831Z,29.87
2022-12-03T15:09:52.735Z,30.87
2022-12-03T15:12:54.571Z,43.90
2022-12-03T15:15:56.305Z,34.07
2022-12-03T15:18:57.856Z,41.43
2022-12-03T15:21:59.482Z,45.53
2022-12-03T15:25:02.682Z,41.53
2022-12-03T15:28:05.456Z,33.67
2022-12-03T15:31:07.084Z,37.77
2022-12-03T15:34:08.762Z,34.97
2022-12-03T15:37:10.369Z,40.37
2022-12-03T15:40:12.585Z,38.67
2022-12-03T15:43:14.254Z,36.23
2022-12-03T15:46:16.028Z,38.50
2022-12-03T15:49:17.693Z,34.00
2022-12-03T15:52:19.345Z,40.53
2022-12-03T15:55:21.107Z,44.03
2022-12-03T15:58:22.708Z,41.20
2022-12-03T16:01:24.672Z,41.57
2022-12-03T16:04:26.319Z,33.10
2022-12-03T16:07:28.157Z,39.90
2022-12-03T16:10:29.704Z,55.63
2022-12-03T16:13:31.300Z,72.07
2022-12-03T16:16:32.946Z,45.03
2022-12-03T16:19:35.004Z,58.37
2022-12-03T16:22:36.687Z,41.60
2022-12-03T16:25:38.341Z,49.00
2022-12-03T16:28:41.038Z,32.17
2022-12-03T16:31:42.737Z,39.60
2022-12-03T16:34:44.344Z,36.83
2022-12-03T16:37:46.549Z,49.57
2022-12-03T16:40:48.244Z,49.77
2022-12-03T16:43:50.070Z,42.13
2022-12-03T16:46:51.800Z,42.77
2022-12-03T16:49:53.619Z,36.90
2022-12-03T16:52:55.355Z,35.43
2022-12-03T16:55:56.966Z,46.47
2022-12-03T16:58:58.676Z,46.80
2022-12-03T17:02:00.384Z,41.17
2022-12-03T17:05:02.267Z,43.93
2022-12-03T17:08:03.948Z,37.10
2022-12-03T17:11:06.093Z,36.20
2022-12-03T17:14:07.996Z,44.30
2022-12-03T17:17:09.872Z,38.77
2022-12-03T17:20:12.662Z,37.60
2022-12-03T17:23:14.374Z,38.13
2022-12-03T17:26:16.016Z,34.43
2022-12-03T17:29:17.713Z,34.70
2022-12-03T17:32:19.595Z,31.90
2022-12-03T17:35:21.269Z,34.70
2022-12-03T17:38:22.958Z,33.63
2022-12-03T17:41:26.240Z,35.57
2022-12-03T17:44:28.036Z,30.73
2022-12-03T17:47:29.733Z,38.60
2022-12-03T17:50:31.393Z,35.13
2022-12-03T17:53:33.098Z,34.83
2022-12-03T17:56:34.888Z,27.33
2022-12-03T17:59:36.649Z,29.20
2022-12-03T18:02:38.336Z,34.13
2022-12-03T18:05:39.986Z,42.50
2022-12-03T18:08:41.623Z,37.20
2022-12-03T18:11:43.426Z,28.20
2022-12-03T18:14:45.220Z,28.87
2022-12-03T18:17:46.835Z,34.27
2022-12-03T18:20:48.411Z,28.43
2022-12-03T18:23:50.576Z,28.87
2022-12-03T18:26:52.237Z,29.10
2022-12-03T18:29:54.239Z,33.63
2022-12-03T18:32:56.231Z,31.33
2022-12-03T18:35:58.118Z,40.33
2022-12-03T18:39:01.086Z,32.93
2022-12-03T18:42:06.265Z,26.50
2022-12-03T18:45:11.288Z,38.87
2022-12-03T18:48:13.649Z,34.60
2022-12-03T18:51:23.399Z,32.97
2022-12-03T18:54:24.999Z,36.17
2022-12-03T18:57:26.845Z,32.93
2022-12-03T19:00:28.469Z,26.03
2022-12-03T19:03:30.401Z,28.43
2022-12-03T19:06:32.108Z,25.07
2022-12-03T19:09:33.774Z,29.60
2022-12-03T19:12:35.467Z,32.23
2022-12-03T19:15:37.632Z,31.90
2022-12-03T19:18:39.682Z,36.17
2022-12-03T19:21:41.288Z,25.87
2022-12-03T19:24:43.708Z,29.40
2022-12-03T19:27:45.440Z,38.07
2022-12-03T19:30:54.939Z,33.63
2022-12-03T19:33:56.564Z,25.73
2022-12-03T19:36:58.160Z,25.97
2022-12-03T19:40:00.202Z,24.70
2022-12-03T19:43:01.777Z,26.27
2022-12-03T19:46:07.613Z,25.40
2022-12-03T19:49:09.675Z,28.73
2022-12-03T19:52:11.299Z,26.93
2022-12-03T19:55:13.696Z,28.13
2022-12-03T19:58:15.327Z,28.23
2022-12-03T20:01:21.186Z,28.97
2022-12-03T20:04:22.875Z,30.83
2022-12-03T20:07:24.451Z,29.50
2022-12-03T20:10:26.038Z,24.37
2022-12-03T20:13:30.879Z,25.13
2022-12-03T20:16:36.733Z,21.83
2022-12-03T20:19:38.551Z,22.03
2022-12-03T20:22:40.159Z,23.33
2022-12-03T20:25:41.777Z,25.80
2022-12-03T20:28:43.615Z,23.57
2022-12-03T20:31:45.301Z,30.30
2022-12-03T20:34:46.860Z,30.43
2022-12-03T20:37:48.459Z,23.80
2022-12-03T20:40:50.089Z,26.37
2022-12-03T20:43:52.333Z,20.80
2022-12-03T20:46:53.952Z,22.27
2022-12-03T20:49:56.941Z,21.13
2022-12-03T20:53:23.315Z,21.80
2022-12-03T20:56:21.863Z,19.60
2022-12-03T20:59:23.471Z,21.03
2022-12-03T21:02:25.248Z,16.27
2022-12-03T21:05:27.142Z,17.43
2022-12-03T21:08:40.614Z,16.33
2022-12-03T21:11:43.438Z,18.80
2022-12-03T21:14:45.178Z,17.80
2022-12-03T21:17:46.932Z,20.27
2022-12-03T21:20:48.544Z,20.53
2022-12-03T21:23:50.359Z,18.80
2022-12-03T21:26:52.009Z,22.13
2022-12-03T21:29:54.295Z,15.93
2022-12-03T21:32:56.076Z,16.43
2022-12-03T21:35:58.217Z,15.47
2022-12-03T21:38:59.940Z,17.87
2022-12-03T21:42:34.597Z,18.90
2022-12-03T21:45:25.076Z,16.63
2022-12-03T21:48:26.800Z,21.07
2022-12-03T21:51:28.478Z,17.50
2022-12-03T21:54:30.046Z,16.47
2022-12-03T21:57:31.598Z,17.00
2022-12-03T22:00:33.319Z,15.60
2022-12-03T22:03:34.938Z,17.43
2022-12-03T22:06:36.488Z,17.27
2022-12-03T22:09:38.175Z,17.00
2022-12-03T22:12:41.887Z,17.83
2022-12-03T22:15:43.498Z,16.60
2022-12-03T22:18:45.414Z,19.30
2022-12-03T22:21:47.040Z,18.33
2022-12-03T22:24:48.659Z,15.97
2022-12-03T22:27:50.192Z,15.90
2022-12-03T22:30:51.877Z,14.63
2022-12-03T22:33:53.475Z,15.53
2022-12-03T22:36:55.135Z,15.00
2022-12-03T22:39:57.122Z,13.87
2022-12-03T22:42:58.926Z,13.67
2022-12-03T22:46:00.575Z,12.27
2022-12-03T22:49:06.987Z,12.77
2022-12-03T22:52:09.171Z,21.53
2022-12-03T22:55:10.707Z,17.60
2022-12-03T22:58:12.293Z,23.20
2022-12-03T23:01:22.898Z,18.83
2022-12-03T23:04:24.467Z,13.63
2022-12-03T23:07:26.140Z,13.67
2022-12-03T23:10:32.538Z,15.20
2022-12-03T23:13:35.932Z,12.27
2022-12-03T23:16:37.655Z,10.83
2022-12-03T23:19:39.243Z,13.40
2022-12-03T23:22:40.924Z,14.17
2022-12-03T23:25:42.833Z,10.87
2022-12-03T23:28:45.463Z,13.80
2022-12-03T23:31:47.060Z,15.97
2022-12-03T23:34:48.839Z,12.63
2022-12-03T23:37:50.586Z,12.00
2022-12-03T23:40:53.011Z,17.97
2022-12-03T23:43:54.657Z,13.37
2022-12-03T23:46:56.287Z,17.13
2022-12-03T23:49:58.002Z,23.70
2022-12-03T23:52:59.612Z,15.83
2022-12-03T23:56:04.904Z,16.63
2022-12-03T23:59:06.604Z,15.67
